Time;durP1;ratioP1;P1;durP2;ratioP2;P2;SDS_P1;SDS_P2;PMS_P1;PMS_P2;Temp;Humidity;BMP_temperature;BMP_pressure;BME280_temperature;BME280_humidity;BME280_pressure;Samples;Min_cycle;Max_cycle;Signal;HPM_P1;HPM_P2
2021/01/06 00:00:48;;;;;;;43.60;26.43;;;1.50;99.90;;;;;;5094628;28;20688;-39
2021/01/06 00:03:17;;;;;;;45.73;24.97;;;1.50;99.90;;;;;;5082507;28;20211;-39
2021/01/06 00:05:45;;;;;;;45.97;25.83;;;1.50;99.90;;;;;;5092391;28;20211;-39
2021/01/06 00:08:12;;;;;;;46.43;25.03;;;1.50;99.90;;;;;;5083166;28;20217;-39
2021/01/06 00:10:39;;;;;;;42.97;24.00;;;1.50;99.90;;;;;;5094082;28;20329;-39
2021/01/06 00:13:06;;;;;;;47.53;24.23;;;1.50;99.90;;;;;;5094327;28;20280;-39
2021/01/06 00:15:36;;;;;;;48.67;27.50;;;1.50;99.90;;;;;;5094366;28;20253;-39
2021/01/06 00:18:04;;;;;;;45.73;25.50;;;1.50;99.90;;;;;;5094459;28;20661;-39
2021/01/06 00:20:33;;;;;;;48.30;26.73;;;1.50;99.90;;;;;;5094299;28;20206;-40
2021/01/06 00:23:00;;;;;;;47.27;26.63;;;1.50;99.90;;;;;;5094229;28;20234;-39
2021/01/06 00:25:29;;;;;;;44.80;26.33;;;1.50;99.90;;;;;;5094097;28;20234;-39
2021/01/06 00:27:56;;;;;;;53.73;27.37;;;1.50;99.90;;;;;;5094223;28;20207;-39
2021/01/06 00:30:26;;;;;;;47.13;25.03;;;1.50;99.90;;;;;;5093949;28;20647;-39
2021/01/06 00:32:54;;;;;;;48.78;25.33;;;1.60;99.90;;;;;;5094446;28;20297;-39
2021/01/06 00:35:23;;;;;;;49.77;24.13;;;1.60;99.90;;;;;;5094140;28;20213;-39
2021/01/06 00:37:50;;;;;;;50.50;26.13;;;1.70;99.90;;;;;;5093960;28;20289;-39
2021/01/06 00:40:19;;;;;;;51.33;26.95;;;1.60;99.90;;;;;;5093872;28;20209;-38
2021/01/06 00:42:46;;;;;;;50.72;27.05;;;1.60;99.90;;;;;;5093823;28;20301;-41
2021/01/06 00:45:16;;;;;;;46.43;26.93;;;1.60;99.90;;;;;;5094055;28;20209;-39
2021/01/06 00:47:43;;;;;;;48.55;26.17;;;1.60;99.90;;;;;;5093796;28;20297;-40
2021/01/06 00:50:13;;;;;;;44.03;24.93;;;1.60;99.90;;;;;;5093790;28;20373;-39
2021/01/06 00:52:40;;;;;;;43.60;24.67;;;1.50;99.90;;;;;;5093898;28;20222;-40
2021/01/06 00:55:09;;;;;;;61.23;28.50;;;1.50;99.90;;;;;;5093102;28;20246;-39
2021/01/06 00:57:36;;;;;;;48.73;25.57;;;1.50;99.90;;;;;;5092436;28;20264;-39
2021/01/06 01:00:07;;;;;;;46.50;25.30;;;1.50;99.90;;;;;;5093645;28;20315;-40
2021/01/06 01:02:34;;;;;;;51.70;26.50;;;1.60;99.90;;;;;;5093629;28;20249;-38
2021/01/06 01:05:02;;;;;;;47.33;25.10;;;1.60;99.90;;;;;;5093470;28;20246;-39
2021/01/06 01:07:30;;;;;;;46.47;24.30;;;1.60;99.90;;;;;;5093286;28;20210;-39
2021/01/06 01:09:57;;;;;;;51.53;26.53;;;1.60;99.90;;;;;;5093403;28;20245;-40
2021/01/06 01:12:24;;;;;;;45.57;25.30;;;1.60;99.90;;;;;;5093156;28;20302;-40
2021/01/06 01:14:51;;;;;;;43.27;24.27;;;1.60;99.90;;;;;;5093313;28;20210;-39
2021/01/06 01:17:18;;;;;;;47.30;25.37;;;1.60;99.90;;;;;;5093257;28;20206;-38
2021/01/06 01:19:46;;;;;;;45.93;25.33;;;1.60;99.90;;;;;;5093293;28;20207;-38
2021/01/06 01:22:12;;;;;;;44.53;24.73;;;1.60;99.90;;;;;;5093059;28;20206;-40
2021/01/06 01:24:40;;;;;;;50.23;25.17;;;1.60;99.90;;;;;;5093017;28;20683;-39
2021/01/06 01:27:07;;;;;;;42.35;23.25;;;1.60;99.90;;;;;;5093159;28;20305;-38
2021/01/06 01:29:34;;;;;;;48.07;24.90;;;1.60;99.90;;;;;;5092907;28;20298;-39
2021/01/06 01:32:01;;;;;;;46.83;24.98;;;1.60;99.90;;;;;;5092754;28;20230;-39
2021/01/06 01:34:28;;;;;;;47.47;25.27;;;1.60;99.90;;;;;;5092876;28;20264;-41
2021/01/06 01:36:55;;;;;;;43.73;25.00;;;1.50;99.90;;;;;;5092603;28;20257;-39
2021/01/06 01:39:22;;;;;;;44.50;24.57;;;1.50;99.90;;;;;;5092896;28;20214;-39
2021/01/06 01:41:57;;;;;;;46.20;25.55;;;1.50;99.90;;;;;;5092920;28;20228;-39
2021/01/06 01:44:24;;;;;;;46.33;24.23;;;1.50;99.90;;;;;;5092815;28;20248;-39
2021/01/06 01:47:07;;;;;;;46.10;25.40;;;1.40;99.90;;;;;;5092741;28;20250;-38
2021/01/06 01:49:42;;;;;;;47.53;24.83;;;1.50;99.90;;;;;;5092585;28;20681;-39
2021/01/06 01:52:20;;;;;;;47.07;25.00;;;1.50;99.90;;;;;;5092637;28;20234;-40
2021/01/06 01:54:47;;;;;;;40.80;23.10;;;1.50;99.90;;;;;;5092563;28;20383;-39
2021/01/06 01:57:20;;;;;;;43.58;23.70;;;1.40;99.90;;;;;;5092411;28;20420;-40
2021/01/06 01:59:59;;;;;;;48.63;26.97;;;1.40;99.90;;;;;;5092460;28;20286;-40
2021/01/06 02:02:32;;;;;;;44.27;24.70;;;1.40;99.90;;;;;;5092649;28;20592;-40
2021/01/06 02:05:05;;;;;;;43.85;25.15;;;1.40;99.90;;;;;;5092464;28;20209;-40
2021/01/06 02:07:38;;;;;;;46.00;25.30;;;1.40;99.90;;;;;;5092116;28;20299;-42
2021/01/06 02:10:15;;;;;;;45.15;24.30;;;1.40;99.90;;;;;;5092197;28;20576;-41
2021/01/06 02:12:49;;;;;;;46.50;24.10;;;1.40;99.90;;;;;;5092411;28;20294;-47
2021/01/06 02:15:27;;;;;;;46.17;25.90;;;1.40;99.90;;;;;;5092412;28;20207;-40
2021/01/06 02:17:54;;;;;;;46.67;25.02;;;1.40;99.90;;;;;;5092420;28;20245;-42
2021/01/06 02:20:24;;;;;;;47.60;25.15;;;1.50;99.90;;;;;;5092117;28;20242;-41
2021/01/06 02:22:52;;;;;;;52.67;25.63;;;1.40;99.90;;;;;;5092120;28;20302;-40
2021/01/06 02:25:22;;;;;;;41.80;23.70;;;1.50;99.90;;;;;;5092359;28;20246;-41
2021/01/06 02:27:49;;;;;;;47.53;24.97;;;1.50;99.90;;;;;;5092213;28;20657;-41
2021/01/06 02:30:18;;;;;;;49.73;24.90;;;1.50;99.90;;;;;;5092174;28;20229;-40
2021/01/06 02:32:45;;;;;;;43.55;25.77;;;1.50;99.90;;;;;;5092121;28;20700;-41
2021/01/06 02:35:13;;;;;;;43.27;24.00;;;1.40;99.90;;;;;;5091909;28;20249;-40
2021/01/06 02:37:42;;;;;;;44.13;24.15;;;1.40;99.90;;;;;;5092042;28;20294;-40
2021/01/06 02:40:12;;;;;;;43.13;22.23;;;1.40;99.90;;;;;;5092153;28;20582;-40
2021/01/06 02:42:39;;;;;;;45.93;23.60;;;1.40;99.90;;;;;;5091934;28;20206;-40
2021/01/06 02:45:11;;;;;;;43.33;23.80;;;1.40;99.90;;;;;;5091965;28;20514;-39
2021/01/06 02:47:40;;;;;;;42.03;23.33;;;1.40;99.90;;;;;;5091726;28;20665;-39
2021/01/06 02:50:12;;;;;;;44.73;23.63;;;1.30;99.90;;;;;;5092047;28;20297;-40
2021/01/06 02:52:46;;;;;;;45.97;24.93;;;1.40;99.90;;;;;;5092375;28;20295;-40
2021/01/06 02:55:15;;;;;;;40.53;22.80;;;1.40;99.90;;;;;;5091958;28;20714;-40
2021/01/06 02:57:43;;;;;;;39.75;23.40;;;1.50;99.90;;;;;;5091890;28;20214;-40
2021/01/06 03:00:15;;;;;;;48.33;25.30;;;1.50;99.90;;;;;;5091777;28;20246;-40
2021/01/06 03:02:43;;;;;;;46.30;24.67;;;1.50;99.90;;;;;;5091816;28;20217;-40
2021/01/06 03:05:18;;;;;;;42.47;23.33;;;1.50;99.90;;;;;;5092045;28;20207;-39
2021/01/06 03:07:46;;;;;;;48.33;25.90;;;1.50;99.90;;;;;;5091624;28;20318;-38
2021/01/06 03:10:16;;;;;;;46.35;25.33;;;1.50;99.90;;;;;;5091420;28;20306;-40
2021/01/06 03:12:44;;;;;;;44.35;24.63;;;1.50;99.90;;;;;;5091617;28;20215;-38
2021/01/06 03:15:13;;;;;;;42.72;24.13;;;1.50;99.90;;;;;;5091854;28;20293;-39
2021/01/06 03:17:41;;;;;;;44.40;25.53;;;1.60;99.90;;;;;;5093269;28;20289;-39
2021/01/06 03:20:11;;;;;;;43.43;24.13;;;1.60;99.90;;;;;;5095603;28;20294;-39
2021/01/06 03:22:40;;;;;;;43.67;24.97;;;1.60;99.90;;;;;;5095543;28;20211;-39
2021/01/06 03:25:10;;;;;;;40.90;21.30;;;1.70;99.90;;;;;;5095298;28;20202;-39
2021/01/06 03:27:41;;;;;;;41.47;22.93;;;1.70;99.90;;;;;;5095284;28;20743;-40
2021/01/06 03:30:12;;;;;;;44.47;24.05;;;1.70;99.90;;;;;;5095472;28;20231;-38
2021/01/06 03:32:45;;;;;;;38.28;23.35;;;1.80;99.90;;;;;;5095199;28;20245;-39
2021/01/06 03:35:20;;;;;;;43.70;23.67;;;1.80;99.90;;;;;;5095328;28;20254;-39
2021/01/06 03:37:53;;;;;;;43.43;24.00;;;1.80;99.90;;;;;;5094988;28;20289;-40
2021/01/06 03:40:26;;;;;;;37.67;23.05;;;1.70;99.90;;;;;;5095013;28;20249;-39
2021/01/06 03:42:55;;;;;;;35.20;23.73;;;1.70;99.90;;;;;;5095232;28;20253;-39
2021/01/06 03:45:25;;;;;;;38.43;22.20;;;1.70;99.90;;;;;;5094949;28;20435;-39
2021/01/06 03:47:59;;;;;;;45.60;24.77;;;1.70;99.90;;;;;;5094934;28;20331;-42
2021/01/06 03:50:33;;;;;;;40.53;23.40;;;1.80;99.90;;;;;;5094774;28;20233;-39
2021/01/06 03:53:06;;;;;;;44.50;24.30;;;1.80;99.90;;;;;;5095057;28;20257;-40
2021/01/06 03:55:50;;;;;;;39.42;21.92;;;1.80;99.90;;;;;;5094986;28;20284;-39
2021/01/06 03:58:36;;;;;;;40.33;23.10;;;1.90;99.90;;;;;;5094815;28;20730;-39
2021/01/06 04:01:31;;;;;;;39.10;22.80;;;1.90;99.90;;;;;;5095153;28;20206;-39
2021/01/06 04:04:11;;;;;;;41.83;23.85;;;1.90;99.90;;;;;;5094644;28;20305;-40
2021/01/06 04:06:42;;;;;;;42.50;23.23;;;1.90;99.90;;;;;;5094534;28;20632;-40
2021/01/06 04:09:18;;;;;;;38.50;23.57;;;1.90;99.90;;;;;;5094268;28;20245;-39
2021/01/06 04:11:54;;;;;;;41.03;23.48;;;1.90;99.90;;;;;;5094194;28;20274;-39
2021/01/06 04:14:21;;;;;;;43.47;24.42;;;1.90;99.90;;;;;;5094454;28;20202;-41
2021/01/06 04:16:48;;;;;;;41.13;23.63;;;2.00;99.90;;;;;;5094462;28;20234;-40
2021/01/06 04:19:15;;;;;;;39.50;23.65;;;2.00;99.90;;;;;;5094292;28;20236;-40
2021/01/06 04:21:42;;;;;;;35.95;22.55;;;2.00;99.90;;;;;;5094431;28;20298;-40
2021/01/06 04:24:12;;;;;;;43.00;22.85;;;2.00;99.90;;;;;;5094216;28;20672;-39
2021/01/06 04:26:40;;;;;;;41.95;23.63;;;2.10;99.90;;;;;;5094182;28;20210;-43
2021/01/06 04:29:07;;;;;;;34.15;21.02;;;2.00;99.90;;;;;;5093398;28;20260;-40
2021/01/06 04:31:35;;;;;;;41.75;23.27;;;2.10;99.90;;;;;;5094081;28;20776;-40
2021/01/06 04:34:02;;;;;;;41.73;24.27;;;2.00;99.90;;;;;;5094014;28;20298;-40
2021/01/06 04:36:31;;;;;;;39.93;24.07;;;2.10;99.90;;;;;;5093916;28;20209;-41
2021/01/06 04:39:01;;;;;;;37.45;23.35;;;2.10;99.90;;;;;;5094090;28;20293;-39
2021/01/06 04:41:42;;;;;;;38.63;24.13;;;2.00;99.90;;;;;;5094295;28;20615;-40
2021/01/06 04:44:45;;;;;;;39.77;24.73;;;2.00;99.90;;;;;;5094004;28;20289;-40
2021/01/06 04:47:42;;;;;;;37.35;21.95;;;2.00;99.90;;;;;;5094072;28;20293;-40
2021/01/06 04:50:34;;;;;;;39.73;22.57;;;1.90;99.90;;;;;;5091812;28;20260;-40
2021/01/06 04:53:09;;;;;;;40.33;23.77;;;1.90;99.90;;;;;;5093926;28;20367;-40
2021/01/06 04:55:49;;;;;;;36.97;22.47;;;1.90;99.90;;;;;;5093746;28;20297;-40
2021/01/06 04:58:25;;;;;;;39.03;21.20;;;1.90;99.90;;;;;;5093462;28;20202;-39
2021/01/06 05:01:15;;;;;;;34.83;21.45;;;1.90;99.90;;;;;;5093511;28;20211;-39
2021/01/06 05:03:57;;;;;;;36.75;22.50;;;2.00;99.90;;;;;;5072274;28;20214;-39
2021/01/06 05:06:43;;;;;;;44.28;22.92;;;2.00;99.90;;;;;;5093526;28;20246;-39
2021/01/06 05:09:15;;;;;;;34.37;21.23;;;2.00;99.90;;;;;;5093394;28;20203;-39
2021/01/06 05:11:56;;;;;;;39.40;23.02;;;2.00;99.90;;;;;;5093108;28;20325;-40
2021/01/06 05:14:29;;;;;;;36.08;21.55;;;2.00;99.90;;;;;;5093595;28;20385;-39
2021/01/06 05:16:57;;;;;;;41.20;23.83;;;2.00;99.90;;;;;;5093395;28;20241;-38
2021/01/06 05:19:29;;;;;;;38.37;22.80;;;2.00;99.90;;;;;;5093469;28;20256;-40
2021/01/06 05:21:57;;;;;;;37.00;21.52;;;2.00;99.90;;;;;;5093807;28;20271;-39
2021/01/06 05:24:30;;;;;;;36.38;21.63;;;2.00;99.90;;;;;;5093122;28;20209;-40
2021/01/06 05:27:16;;;;;;;32.97;21.17;;;2.00;99.90;;;;;;5093022;28;20652;-39
2021/01/06 05:29:45;;;;;;;34.97;20.70;;;2.00;99.90;;;;;;5093318;28;20234;-40
2021/01/06 05:32:18;;;;;;;36.28;21.13;;;2.00;99.90;;;;;;5092503;28;20322;-39
2021/01/06 05:34:49;;;;;;;33.53;22.57;;;2.00;99.90;;;;;;5093151;28;20213;-39
2021/01/06 05:37:17;;;;;;;39.30;23.67;;;2.10;99.90;;;;;;5092912;28;20235;-40
2021/01/06 05:39:44;;;;;;;33.15;19.65;;;2.10;99.90;;;;;;5092808;28;20680;-40
2021/01/06 05:42:15;;;;;;;35.53;22.10;;;2.10;99.90;;;;;;5091972;28;20567;-42
2021/01/06 05:44:42;;;;;;;34.03;21.27;;;2.10;99.90;;;;;;5092782;28;20305;-39
2021/01/06 05:47:18;;;;;;;33.90;21.80;;;2.10;99.90;;;;;;5092560;28;20291;-40
2021/01/06 05:49:46;;;;;;;35.97;21.03;;;2.10;99.90;;;;;;5092764;28;20260;-40
2021/01/06 05:52:15;;;;;;;30.33;19.40;;;2.00;99.90;;;;;;5092401;28;20230;-39
2021/01/06 05:54:47;;;;;;;32.73;20.37;;;2.10;99.90;;;;;;5092483;28;20245;-39
2021/01/06 05:57:31;;;;;;;31.77;18.50;;;2.10;99.90;;;;;;5092458;28;20206;-40
2021/01/06 06:00:14;;;;;;;33.47;20.03;;;2.10;99.90;;;;;;5092538;28;20234;-41
2021/01/06 06:02:50;;;;;;;31.67;20.60;;;2.10;99.90;;;;;;5092555;28;20282;-39
2021/01/06 06:05:39;;;;;;;34.60;21.10;;;2.00;99.90;;;;;;5092411;28;20668;-40
2021/01/06 06:08:28;;;;;;;34.87;19.97;;;2.00;99.90;;;;;;5092635;28;20210;-39
2021/01/06 06:11:15;;;;;;;30.67;20.53;;;2.00;99.90;;;;;;5092079;28;20242;-41
2021/01/06 06:14:23;;;;;;;33.83;20.10;;;2.00;99.90;;;;;;5092242;28;20616;-40
2021/01/06 06:16:58;;;;;;;32.70;19.90;;;2.00;99.90;;;;;;5070449;28;20309;-39
2021/01/06 06:19:34;;;;;;;35.28;19.92;;;2.00;99.90;;;;;;5092336;28;20260;-39
2021/01/06 06:22:19;;;;;;;33.30;19.83;;;2.00;99.90;;;;;;5092175;28;20206;-40
2021/01/06 06:24:56;;;;;;;35.13;20.63;;;2.10;99.90;;;;;;5092058;28;20234;-41
2021/01/06 06:27:47;;;;;;;31.27;19.35;;;2.10;99.90;;;;;;5092193;28;20222;-39
2021/01/06 06:30:35;;;;;;;31.60;18.70;;;2.00;99.90;;;;;;5091976;28;20241;-40
2021/01/06 06:33:02;;;;;;;29.35;19.80;;;2.00;99.90;;;;;;5092343;28;20268;-39
2021/01/06 06:35:36;;;;;;;29.67;20.33;;;2.00;99.90;;;;;;5091931;28;20289;-39
2021/01/06 06:38:07;;;;;;;33.27;19.63;;;2.00;99.90;;;;;;5091920;28;20215;-40
2021/01/06 06:40:55;;;;;;;31.35;18.75;;;2.00;99.90;;;;;;5091939;28;20263;-39
2021/01/06 06:43:31;;;;;;;32.63;20.67;;;2.00;99.90;;;;;;5091730;28;20242;-41
2021/01/06 06:46:17;;;;;;;32.57;20.43;;;2.00;99.90;;;;;;5091811;28;20313;-39
2021/01/06 06:48:59;;;;;;;32.03;20.77;;;2.00;99.90;;;;;;5091714;28;20293;-39
2021/01/06 06:51:32;;;;;;;34.13;20.65;;;2.00;99.90;;;;;;5091508;28;20219;-39
2021/01/06 06:54:06;;;;;;;36.65;20.65;;;2.10;99.90;;;;;;5095727;28;20305;-39
2021/01/06 06:56:41;;;;;;;32.50;20.77;;;2.10;99.90;;;;;;5095765;28;20624;-39
2021/01/06 06:59:13;;;;;;;32.20;20.88;;;2.10;99.90;;;;;;5095725;28;20288;-41
2021/01/06 07:01:44;;;;;;;31.27;19.03;;;2.10;99.90;;;;;;5095499;28;20630;-40
2021/01/06 07:04:20;;;;;;;29.85;19.42;;;2.10;99.90;;;;;;5095430;28;20633;-40
2021/01/06 07:06:54;;;;;;;29.05;19.42;;;2.10;99.90;;;;;;5095438;28;20206;-40
2021/01/06 07:09:27;;;;;;;29.67;19.65;;;2.00;99.90;;;;;;5095344;28;20206;-39
2021/01/06 07:12:02;;;;;;;33.25;20.48;;;2.00;99.90;;;;;;5095197;28;20280;-40
2021/01/06 07:14:31;;;;;;;31.25;20.15;;;2.10;99.90;;;;;;5095807;28;20242;-40
2021/01/06 07:17:04;;;;;;;35.80;21.05;;;2.10;99.90;;;;;;5095601;28;20328;-40
2021/01/06 07:19:34;;;;;;;30.95;20.33;;;2.10;99.90;;;;;;5095381;28;20257;-39
2021/01/06 07:22:19;;;;;;;31.45;19.85;;;2.20;99.90;;;;;;5095284;28;20242;-39
2021/01/06 07:24:51;;;;;;;40.85;21.73;;;2.30;99.90;;;;;;5094930;28;20206;-40
2021/01/06 07:27:19;;;;;;;34.33;20.83;;;2.30;99.90;;;;;;5095231;28;20301;-39
2021/01/06 07:29:48;;;;;;;30.27;20.67;;;2.30;99.90;;;;;;5095048;28;20729;-39
2021/01/06 07:32:17;;;;;;;31.90;21.40;;;2.30;99.90;;;;;;5094748;28;20234;-39
2021/01/06 07:34:49;;;;;;;35.08;21.85;;;2.30;99.90;;;;;;5095157;28;20293;-37
2021/01/06 07:37:34;;;;;;;33.07;21.63;;;2.30;99.90;;;;;;5094763;28;20225;-41
2021/01/06 07:40:19;;;;;;;32.15;21.00;;;2.30;99.90;;;;;;5095042;28;20557;-39
2021/01/06 07:42:49;;;;;;;33.65;21.13;;;2.30;99.90;;;;;;5095031;28;20199;-39
2021/01/06 07:45:27;;;;;;;29.70;21.33;;;2.30;99.90;;;;;;5094982;28;20222;-39
2021/01/06 07:48:05;;;;;;;33.38;21.15;;;2.30;99.90;;;;;;5094563;28;20653;-39
2021/01/06 07:50:35;;;;;;;31.92;20.65;;;2.30;99.90;;;;;;5094980;28;20298;-39
2021/01/06 07:53:08;;;;;;;36.83;22.73;;;2.30;99.90;;;;;;5094515;28;20234;-40
2021/01/06 07:55:38;;;;;;;32.92;20.60;;;2.30;99.90;;;;;;5094712;28;20730;-41
2021/01/06 07:58:09;;;;;;;32.13;20.47;;;2.30;99.90;;;;;;5094329;28;20242;-39
2021/01/06 08:00:41;;;;;;;30.63;20.20;;;2.30;99.90;;;;;;5094309;28;20207;-39
2021/01/06 08:03:21;;;;;;;32.97;20.87;;;2.30;99.90;;;;;;5094259;28;20346;-39
2021/01/06 08:05:56;;;;;;;32.95;19.67;;;2.20;99.90;;;;;;5094247;28;20202;-39
2021/01/06 08:08:25;;;;;;;32.67;20.53;;;2.20;99.90;;;;;;5094022;28;20301;-38
2021/01/06 08:11:05;;;;;;;34.58;24.02;;;2.20;99.90;;;;;;5094020;28;20264;-39
2021/01/06 08:13:34;;;;;;;32.97;21.93;;;2.20;99.90;;;;;;5094402;28;20265;-41
2021/01/06 08:16:15;;;;;;;31.33;20.27;;;2.30;99.90;;;;;;5094235;28;20207;-39
2021/01/06 08:18:59;;;;;;;38.30;24.02;;;2.30;99.90;;;;;;5094237;28;20206;-39
2021/01/06 08:21:29;;;;;;;34.77;20.33;;;2.30;99.90;;;;;;5094414;28;20219;-39
2021/01/06 08:24:12;;;;;;;36.60;22.70;;;2.40;99.90;;;;;;5093837;28;20206;-39
2021/01/06 08:26:48;;;;;;;38.50;24.77;;;2.40;99.90;;;;;;5094132;28;20289;-39
2021/01/06 08:29:21;;;;;;;38.07;24.23;;;2.40;99.90;;;;;;5093906;28;20558;-39
2021/01/06 08:31:50;;;;;;;32.72;23.10;;;2.40;99.90;;;;;;5093902;28;20226;-40
2021/01/06 08:34:29;;;;;;;34.87;23.43;;;2.40;99.90;;;;;;5093916;28;20218;-40
2021/01/06 08:36:59;;;;;;;33.15;21.60;;;2.50;99.90;;;;;;5093985;28;20315;-38
2021/01/06 08:39:28;;;;;;;32.87;21.00;;;2.60;99.90;;;;;;5093746;28;20215;-41
2021/01/06 08:42:06;;;;;;;29.17;19.58;;;2.60;99.90;;;;;;5093430;28;20210;-41
2021/01/06 08:44:41;;;;;;;28.87;21.40;;;2.60;99.90;;;;;;5093921;28;20248;-39
2021/01/06 08:47:11;;;;;;;29.70;19.80;;;2.70;99.90;;;;;;5093560;28;20250;-40
2021/01/06 08:49:39;;;;;;;29.60;19.88;;;2.70;99.90;;;;;;5093649;28;20285;-40
2021/01/06 08:52:20;;;;;;;30.43;20.80;;;2.70;99.90;;;;;;5093438;28;20233;-40
2021/01/06 08:54:57;;;;;;;29.75;19.40;;;2.70;99.90;;;;;;5093485;28;20216;-40
2021/01/06 08:57:29;;;;;;;30.67;18.63;;;2.70;99.90;;;;;;5093520;28;20229;-38
2021/01/06 08:59:57;;;;;;;28.95;18.25;;;2.70;99.90;;;;;;5093285;28;20215;-38
2021/01/06 09:02:42;;;;;;;30.47;19.27;;;2.70;99.90;;;;;;5093151;28;20272;-38
2021/01/06 09:05:44;;;;;;;30.40;18.90;;;2.80;99.90;;;;;;5093663;28;20293;-39
2021/01/06 09:08:14;;;;;;;26.87;18.20;;;2.80;99.90;;;;;;5093379;28;20206;-39
2021/01/06 09:10:49;;;;;;;24.93;18.73;;;2.80;99.90;;;;;;5093072;28;20242;-39
2021/01/06 09:13:20;;;;;;;27.60;18.00;;;2.80;99.90;;;;;;5092921;28;20321;-39
2021/01/06 09:15:51;;;;;;;25.20;18.77;;;2.70;99.90;;;;;;5093071;28;20207;-42
2021/01/06 09:18:24;;;;;;;29.63;19.73;;;2.80;99.90;;;;;;5093084;28;20305;-39
2021/01/06 09:21:06;;;;;;;28.37;19.53;;;2.80;99.90;;;;;;5093325;28;20253;-41
2021/01/06 09:23:33;;;;;;;28.33;19.10;;;2.80;99.90;;;;;;5092847;28;20213;-39
2021/01/06 09:26:02;;;;;;;28.17;19.87;;;2.90;99.90;;;;;;5092769;28;20231;-38
2021/01/06 09:28:37;;;;;;;30.60;19.50;;;2.90;99.90;;;;;;5092793;28;20297;-39
2021/01/06 09:31:06;;;;;;;25.90;19.33;;;2.90;99.90;;;;;;5092828;28;20230;-39
2021/01/06 09:33:38;;;;;;;31.53;21.90;;;2.90;99.90;;;;;;5092659;28;20256;-41
2021/01/06 09:36:07;;;;;;;35.97;23.45;;;3.00;99.90;;;;;;5092551;28;20740;-40
2021/01/06 09:38:37;;;;;;;31.40;20.83;;;3.00;99.90;;;;;;5092486;28;20214;-40
2021/01/06 09:41:08;;;;;;;30.37;21.07;;;3.00;99.90;;;;;;5092838;28;20242;-39
2021/01/06 09:43:38;;;;;;;31.10;21.13;;;3.00;99.90;;;;;;5092560;28;20285;-40
2021/01/06 09:46:15;;;;;;;34.15;23.48;;;3.10;99.90;;;;;;5092832;28;20231;-40
2021/01/06 09:48:44;;;;;;;34.37;23.40;;;3.10;99.90;;;;;;5092482;28;20210;-39
2021/01/06 09:51:16;;;;;;;32.40;21.42;;;3.10;99.90;;;;;;5092418;28;20577;-40
2021/01/06 09:53:43;;;;;;;31.17;21.33;;;3.20;99.90;;;;;;5092822;28;20242;-39
2021/01/06 09:56:14;;;;;;;32.38;20.85;;;3.20;99.90;;;;;;5092402;28;20237;-41
2021/01/06 09:58:42;;;;;;;31.20;21.77;;;3.20;99.90;;;;;;5092252;28;20714;-41
2021/01/06 10:01:24;;;;;;;32.08;21.98;;;3.30;99.90;;;;;;5092113;28;20253;-41
2021/01/06 10:03:54;;;;;;;34.90;23.05;;;3.30;99.90;;;;;;5092688;28;20290;-42
2021/01/06 10:06:37;;;;;;;31.42;22.70;;;3.40;99.90;;;;;;5092328;28;20272;-42
2021/01/06 10:09:12;;;;;;;38.03;23.57;;;3.40;99.90;;;;;;5092160;28;20207;-43
2021/01/06 10:12:05;;;;;;;35.38;22.52;;;3.30;99.90;;;;;;5091637;28;20237;-42
2021/01/06 10:14:48;;;;;;;36.07;24.27;;;3.30;99.90;;;;;;5091874;28;20597;-42
2021/01/06 10:17:23;;;;;;;37.37;25.53;;;3.30;99.90;;;;;;5092180;28;20290;-44
2021/01/06 10:19:58;;;;;;;33.33;22.13;;;3.40;99.90;;;;;;5092065;28;20543;-42
2021/01/06 10:22:43;;;;;;;33.33;22.23;;;3.50;99.90;;;;;;5091926;28;20293;-42
2021/01/06 10:25:24;;;;;;;34.50;23.10;;;3.50;99.90;;;;;;5092005;28;20256;-45
2021/01/06 10:27:59;;;;;;;30.73;21.27;;;3.60;99.90;;;;;;5091137;28;20213;-42
2021/01/06 10:30:30;;;;;;;33.00;21.95;;;3.60;99.90;;;;;;5092121;28;20729;-40
2021/01/06 10:33:13;;;;;;;37.67;24.85;;;3.70;99.90;;;;;;5091846;28;20262;-40
2021/01/06 10:36:15;;;;;;;30.88;21.55;;;3.70;99.90;;;;;;5091990;28;20698;-40
2021/01/06 10:38:52;;;;;;;30.27;22.23;;;3.80;99.90;;;;;;5089416;28;20594;-40
2021/01/06 10:41:31;;;;;;;36.73;23.07;;;3.70;99.90;;;;;;5092165;28;20301;-40
2021/01/06 10:43:59;;;;;;;36.53;22.47;;;3.70;99.90;;;;;;5091997;28;20212;-41
2021/01/06 10:46:51;;;;;;;36.87;23.87;;;3.60;99.90;;;;;;5091792;28;20246;-39
2021/01/06 10:49:51;;;;;;;33.60;23.63;;;3.60;99.90;;;;;;5076859;28;20217;-40
2021/01/06 10:52:24;;;;;;;39.93;25.27;;;3.50;99.90;;;;;;5091742;28;20230;-39
2021/01/06 10:55:39;;;;;;;40.50;24.23;;;3.30;99.90;;;;;;5091501;28;20220;-40
2021/01/06 10:58:25;;;;;;;36.23;23.27;;;3.30;99.90;;;;;;5029376;28;20587;-39
2021/01/06 11:01:03;;;;;;;34.28;23.90;;;3.20;99.90;;;;;;5084930;28;20345;-40
2021/01/06 11:03:50;;;;;;;38.77;24.40;;;3.10;99.90;;;;;;5091578;28;20563;-43
2021/01/06 11:06:26;;;;;;;38.00;23.50;;;3.10;99.90;;;;;;5091525;28;20207;-40
2021/01/06 11:09:23;;;;;;;38.17;24.50;;;3.10;99.90;;;;;;5091708;28;20393;-39
2021/01/06 11:12:15;;;;;;;40.23;23.30;;;3.20;99.90;;;;;;5069552;28;20315;-39
2021/01/06 11:15:20;;;;;;;38.83;23.20;;;3.20;99.90;;;;;;5088854;28;20245;-39
2021/01/06 11:18:14;;;;;;;33.28;22.77;;;3.20;99.90;;;;;;5091561;28;20300;-38
2021/01/06 11:20:45;;;;;;;33.97;21.38;;;3.20;99.90;;;;;;5091415;28;20301;-39
2021/01/06 11:23:43;;;;;;;38.37;23.70;;;3.10;99.90;;;;;;5091361;28;20640;-38
2021/01/06 11:26:45;;;;;;;37.70;23.92;;;3.10;99.90;;;;;;5091354;28;20294;-38
2021/01/06 11:29:48;;;;;;;40.78;23.48;;;3.00;99.90;;;;;;5091562;28;20311;-38
2021/01/06 11:32:35;;;;;;;33.13;21.55;;;2.90;99.90;;;;;;5072119;28;20652;-39
2021/01/06 11:35:26;;;;;;;34.42;22.75;;;2.90;99.90;;;;;;5091157;28;20302;-39
2021/01/06 11:37:55;;;;;;;37.30;23.90;;;2.90;99.90;;;;;;5091299;28;20235;-39
2021/01/06 11:40:52;;;;;;;35.78;22.63;;;3.00;99.90;;;;;;5094910;28;20216;-39
2021/01/06 11:43:44;;;;;;;34.23;22.90;;;3.10;99.90;;;;;;5082921;28;20290;-39
2021/01/06 11:46:40;;;;;;;34.42;21.65;;;3.10;99.90;;;;;;5094881;28;20217;-40
2021/01/06 11:49:32;;;;;;;34.40;21.33;;;3.10;99.90;;;;;;5094111;28;20617;-40
2021/01/06 11:52:26;;;;;;;32.27;20.83;;;3.10;99.90;;;;;;5094829;28;20261;-40
2021/01/06 11:54:57;;;;;;;28.37;19.07;;;3.10;99.90;;;;;;5094673;28;20285;-40
2021/01/06 11:57:39;;;;;;;33.83;20.23;;;3.10;99.90;;;;;;5094414;28;20215;-41
2021/01/06 12:00:25;;;;;;;30.23;19.67;;;3.00;99.90;;;;;;5094744;28;20297;-40
2021/01/06 12:03:01;;;;;;;28.48;18.75;;;3.10;99.90;;;;;;5094455;28;20302;-40
2021/01/06 12:05:32;;;;;;;29.43;19.97;;;3.00;99.90;;;;;;5094446;28;20210;-41
2021/01/06 12:08:24;;;;;;;27.23;17.27;;;3.00;99.90;;;;;;5094259;28;20231;-41
2021/01/06 12:11:05;;;;;;;30.40;18.70;;;3.00;99.90;;;;;;5078926;28;20230;-39
2021/01/06 12:13:46;;;;;;;30.37;19.33;;;3.00;99.90;;;;;;5093946;28;20688;-40
2021/01/06 12:16:17;;;;;;;27.20;17.90;;;3.10;99.90;;;;;;5094219;28;20271;-39
2021/01/06 12:19:12;;;;;;;32.43;19.97;;;3.20;99.90;;;;;;5094378;28;20213;-39
2021/01/06 12:21:48;;;;;;;26.93;18.10;;;3.20;99.90;;;;;;5094239;28;20213;-38
2021/01/06 12:24:50;;;;;;;26.85;17.40;;;3.30;99.90;;;;;;5094140;28;20597;-39
2021/01/06 12:27:51;;;;;;;25.98;17.35;;;3.30;99.90;;;;;;5094159;28;20242;-39
2021/01/06 12:30:40;;;;;;;27.75;17.42;;;3.20;99.90;;;;;;5094068;28;20238;-39
2021/01/06 12:33:38;;;;;;;28.80;19.20;;;3.20;99.90;;;;;;5093762;28;20314;-40
2021/01/06 12:36:24;;;;;;;26.77;18.27;;;3.30;99.90;;;;;;5093852;28;20673;-39
2021/01/06 12:38:54;;;;;;;26.20;17.60;;;3.30;99.90;;;;;;5093513;28;20655;-41
2021/01/06 12:41:25;;;;;;;28.30;18.33;;;3.30;99.90;;;;;;5093599;28;20210;-39
2021/01/06 12:44:11;;;;;;;26.83;17.83;;;3.40;99.90;;;;;;5093582;28;20678;-40
2021/01/06 12:46:44;;;;;;;24.80;16.30;;;3.40;99.90;;;;;;5093615;28;20261;-39
2021/01/06 12:49:25;;;;;;;26.00;17.17;;;3.40;99.90;;;;;;5093692;28;20210;-39
2021/01/06 12:52:18;;;;;;;25.23;17.52;;;3.40;99.90;;;;;;5092993;28;20293;-40
2021/01/06 12:54:49;;;;;;;22.42;15.93;;;3.40;99.90;;;;;;5093385;28;20246;-40
2021/01/06 12:57:21;;;;;;;30.13;18.65;;;3.40;99.90;;;;;;5093545;28;20229;-40
2021/01/06 12:59:51;;;;;;;29.33;17.48;;;3.40;99.90;;;;;;5093422;28;20298;-40
2021/01/06 13:02:29;;;;;;;24.13;17.08;;;3.40;99.90;;;;;;5093363;28;20555;-41
2021/01/06 13:05:08;;;;;;;27.43;18.70;;;3.40;99.90;;;;;;5093437;28;20210;-42
2021/01/06 13:07:37;;;;;;;27.83;20.42;;;3.40;99.90;;;;;;5093454;28;20242;-40
2021/01/06 13:10:28;;;;;;;24.63;16.92;;;3.50;99.90;;;;;;5092891;28;20207;-39
2021/01/06 13:13:00;;;;;;;26.83;17.47;;;3.40;99.90;;;;;;5092809;28;20274;-40
2021/01/06 13:15:30;;;;;;;25.95;16.90;;;3.40;99.90;;;;;;5093045;28;20240;-39
2021/01/06 13:18:02;;;;;;;24.47;17.50;;;3.30;99.90;;;;;;5093216;28;20210;-41